Time;durP1;ratioP1;P1;durP2;ratioP2;P2;SDS_P1;SDS_P2;PMS_P1;PMS_P2;Temp;Humidity;BMP_temperature;BMP_pressure;BME280_temperature;BME280_humidity;BME280_pressure;Samples;Min_cycle;Max_cycle;Signal;HPM_P1;HPM_P2
2022/02/13 00:02:44;;;;;;;11.07;7.73;;;;;;;5.25;49.51;98568.50;8347211;28;20235;-67
2022/02/13 00:06:47;;;;;;;9.87;7.30;;;;;;;5.34;49.32;98570.13;8348591;28;20239;-67
2022/02/13 00:10:52;;;;;;;9.60;7.77;;;;;;;5.54;48.65;98573.28;8348438;28;20236;-67
2022/02/13 00:14:55;;;;;;;11.43;8.70;;;;;;;5.40;49.09;98565.72;8348230;28;20621;-67
2022/02/13 00:18:58;;;;;;;11.40;7.87;;;;;;;5.63;48.43;98560.25;8341641;28;20227;-67
2022/02/13 00:23:21;;;;;;;10.77;8.07;;;;;;;5.63;48.03;98556.84;8357297;28;20239;-67
2022/02/13 00:27:26;;;;;;;10.93;7.77;;;;;;;5.60;48.24;98542.34;8348398;28;20240;-67
2022/02/13 00:31:28;;;;;;;8.87;7.80;;;;;;;5.59;48.18;98538.06;8347925;28;20424;-67
2022/02/13 00:35:32;;;;;;;9.70;7.30;;;;;;;5.46;48.35;98537.41;8346584;28;20239;-68
2022/02/13 00:39:35;;;;;;;10.53;7.50;;;;;;;5.54;48.05;98532.16;8347946;28;20228;-67
2022/02/13 00:43:40;;;;;;;11.03;7.20;;;;;;;5.58;48.08;98532.94;8347684;28;20236;-67
2022/02/13 00:47:43;;;;;;;11.97;7.43;;;;;;;5.64;47.81;98525.16;8347179;28;20239;-67
2022/02/13 00:51:46;;;;;;;10.33;7.47;;;;;;;5.58;47.87;98523.53;8347152;28;20236;-67
2022/02/13 00:55:49;;;;;;;11.97;7.60;;;;;;;5.58;47.97;98515.81;8347388;28;20562;-67
2022/02/13 00:59:53;;;;;;;8.87;7.40;;;;;;;5.65;47.45;98522.56;8347238;28;20251;-66
2022/02/13 01:03:57;;;;;;;10.17;7.73;;;;;;;5.57;47.27;98518.41;8346967;28;20231;-66
2022/02/13 01:08:00;;;;;;;10.27;8.10;;;;;;;5.49;47.34;98521.09;8347244;28;20249;-67
2022/02/13 01:12:04;;;;;;;9.80;7.60;;;;;;;5.48;47.07;98519.38;8347310;28;20240;-67
2022/02/13 01:16:09;;;;;;;8.77;7.00;;;;;;;5.54;47.23;98528.72;8347105;28;20239;-67
2022/02/13 01:20:12;;;;;;;10.50;8.10;;;;;;;5.49;47.58;98531.38;8346789;28;20231;-67
2022/02/13 01:24:15;;;;;;;10.57;7.50;;;;;;;5.19;47.21;98537.78;8347042;28;20227;-67
2022/02/13 01:28:19;;;;;;;11.07;7.97;;;;;;;5.19;47.45;98535.22;8347059;28;20232;-67
2022/02/13 01:32:23;;;;;;;10.63;7.63;;;;;;;5.27;46.92;98538.53;8346881;28;20239;-67
2022/02/13 01:36:26;;;;;;;9.03;7.60;;;;;;;5.32;47.59;98525.63;8346791;28;20239;-67
2022/02/13 01:40:29;;;;;;;10.43;7.90;;;;;;;5.12;47.84;98520.75;8346618;28;20239;-67
2022/02/13 01:44:33;;;;;;;8.50;7.37;;;;;;;5.05;48.64;98520.84;8347880;28;20228;-67
2022/02/13 01:48:38;;;;;;;8.83;7.80;;;;;;;5.23;47.91;98514.59;8353417;28;20223;-67
2022/02/13 01:52:42;;;;;;;10.23;8.90;;;;;;;4.41;49.94;98512.19;8354485;28;20207;-67
2022/02/13 01:56:46;;;;;;;10.27;8.20;;;;;;;4.10;50.99;98496.28;8354314;28;20204;-67
2022/02/13 02:00:49;;;;;;;12.43;8.37;;;;;;;4.78;49.18;98487.81;8352610;28;20439;-67
2022/02/13 02:04:53;;;;;;;11.23;9.03;;;;;;;4.57;49.45;98484.69;8352073;28;20250;-67
2022/02/13 02:08:57;;;;;;;11.20;8.07;;;;;;;4.54;49.65;98483.88;8352194;28;20425;-67
2022/02/13 02:13:00;;;;;;;10.30;7.90;;;;;;;4.81;48.86;98495.50;8351992;28;20242;-67
2022/02/13 02:17:03;;;;;;;9.83;8.63;;;;;;;4.95;48.43;98488.47;8352476;28;20227;-67
2022/02/13 02:21:08;;;;;;;10.20;7.97;;;;;;;4.90;48.76;98490.25;8351370;28;20450;-67
2022/02/13 02:25:13;;;;;;;14.80;9.30;;;;;;;4.89;48.41;98493.66;8351461;28;20239;-66
2022/02/13 02:29:16;;;;;;;10.77;9.13;;;;;;;4.91;47.99;98494.50;8351428;28;20232;-67
2022/02/13 02:33:19;;;;;;;9.97;8.10;;;;;;;4.83;47.25;98501.47;8351279;28;20228;-67
2022/02/13 02:37:24;;;;;;;10.57;7.93;;;;;;;4.79;47.56;98485.25;8351153;28;20232;-67
2022/02/13 02:41:29;;;;;;;10.30;8.07;;;;;;;4.78;47.07;98482.69;8350860;28;20251;-67
2022/02/13 02:45:33;;;;;;;9.17;7.73;;;;;;;4.84;47.79;98485.22;8350475;28;20439;-67
2022/02/13 02:49:36;;;;;;;10.60;8.10;;;;;;;4.55;48.29;98477.84;8350881;28;20535;-67
2022/02/13 02:53:39;;;;;;;10.43;7.80;;;;;;;4.73;48.52;98481.94;8350593;28;20247;-67
2022/02/13 02:57:43;;;;;;;11.10;8.07;;;;;;;4.69;47.74;98476.81;8350202;28;20238;-67
2022/02/13 03:01:46;;;;;;;8.63;6.90;;;;;;;4.74;48.08;98470.78;8349954;28;20228;-67
2022/02/13 03:05:49;;;;;;;11.53;8.00;;;;;;;4.66;47.76;98479.44;8350097;28;20228;-67
2022/02/13 03:09:52;;;;;;;11.47;7.33;;;;;;;4.60;47.03;98476.09;8350282;28;20231;-67
2022/02/13 03:13:57;;;;;;;9.23;7.80;;;;;;;4.49;47.41;98474.50;8349806;28;20239;-67
2022/02/13 03:18:00;;;;;;;9.67;7.63;;;;;;;4.26;48.44;98473.91;8343715;28;20231;-67
2022/02/13 03:22:06;;;;;;;10.23;7.90;;;;;;;4.10;49.27;98468.94;8361477;28;20423;-66
2022/02/13 03:26:09;;;;;;;8.87;7.37;;;;;;;4.15;49.82;98470.59;8349845;28;20239;-67
2022/02/13 03:30:14;;;;;;;10.30;7.60;;;;;;;4.00;49.93;98475.03;8349709;28;20238;-67
2022/02/13 03:34:17;;;;;;;9.27;7.47;;;;;;;3.92;50.20;98461.44;8349803;28;20239;-67
2022/02/13 03:38:20;;;;;;;9.43;7.83;;;;;;;3.36;51.73;98466.19;8349688;28;20232;-67
2022/02/13 03:42:22;;;;;;;9.30;8.00;;;;;;;3.35;51.43;98461.94;8349432;28;20243;-67
2022/02/13 03:46:27;;;;;;;9.60;7.67;;;;;;;3.87;50.33;98456.34;8349313;28;20235;-67
2022/02/13 03:50:30;;;;;;;10.80;7.90;;;;;;;3.80;50.50;98461.56;8349542;28;20235;-67
2022/02/13 03:54:34;;;;;;;10.63;7.80;;;;;;;3.39;51.96;98466.16;8348401;28;20247;-67
2022/02/13 03:58:37;;;;;;;10.17;7.87;;;;;;;3.64;51.10;98471.94;8348486;28;20235;-67
2022/02/13 04:02:42;;;;;;;9.53;6.70;;;;;;;4.02;49.89;98475.03;8348537;28;20434;-67
2022/02/13 04:06:45;;;;;;;9.30;7.67;;;;;;;3.56;50.80;98466.03;8348530;28;20414;-67
2022/02/13 04:10:49;;;;;;;10.53;8.30;;;;;;;3.52;51.20;98467.78;8347678;28;20569;-67
2022/02/13 04:14:52;;;;;;;12.67;7.83;;;;;;;3.48;51.25;98458.44;8348319;28;20254;-67
2022/02/13 04:18:56;;;;;;;9.80;7.77;;;;;;;3.31;52.18;98453.44;8348322;28;20228;-67
2022/02/13 04:22:59;;;;;;;11.87;8.20;;;;;;;3.25;52.23;98453.44;8347930;28;20232;-67
2022/02/13 04:27:02;;;;;;;9.40;8.30;;;;;;;3.12;53.27;98444.16;8347725;28;20238;-67
2022/02/13 04:31:06;;;;;;;11.63;8.80;;;;;;;3.08;53.01;98439.94;8347905;28;20227;-67
2022/02/13 04:35:11;;;;;;;13.63;8.37;;;;;;;3.18;52.32;98445.81;8348039;28;20519;-67
2022/02/13 04:39:14;;;;;;;10.47;8.90;;;;;;;3.02;52.54;98437.41;8347631;28;20242;-67
2022/02/13 04:43:17;;;;;;;12.60;8.37;;;;;;;3.03;52.87;98439.13;8347803;28;20406;-67
2022/02/13 04:47:20;;;;;;;12.00;8.00;;;;;;;3.27;52.85;98444.03;8347714;28;20243;-67
2022/02/13 04:51:24;;;;;;;10.57;8.07;;;;;;;3.30;52.07;98438.06;8347886;28;20235;-66
2022/02/13 04:55:27;;;;;;;11.00;7.80;;;;;;;3.46;52.02;98441.34;8347985;28;20232;-67
2022/02/13 04:59:33;;;;;;;11.63;8.03;;;;;;;3.29;51.81;98444.03;8347871;28;20236;-67
2022/02/13 05:03:36;;;;;;;8.83;7.93;;;;;;;3.07;52.55;98441.66;8346758;28;20236;-66
2022/02/13 05:07:41;;;;;;;9.73;8.57;;;;;;;3.19;52.21;98433.03;8347300;28;20232;-67
2022/02/13 05:11:44;;;;;;;9.93;7.93;;;;;;;2.90;53.20;98425.56;8347465;28;20232;-67
2022/02/13 05:15:47;;;;;;;10.53;8.40;;;;;;;3.13;52.24;98427.97;8347526;28;20235;-67
2022/02/13 05:19:50;;;;;;;9.67;7.77;;;;;;;3.35;51.58;98425.22;8348596;28;20228;-67
2022/02/13 05:23:54;;;;;;;10.80;8.23;;;;;;;3.19;52.02;98427.91;8353638;28;20246;-67
2022/02/13 05:27:57;;;;;;;10.93;8.93;;;;;;;3.26;51.89;98414.22;8353895;28;20235;-66
2022/02/13 05:32:00;;;;;;;10.70;8.57;;;;;;;3.04;52.45;98416.06;8353826;28;20231;-67
2022/02/13 05:36:03;;;;;;;10.27;8.57;;;;;;;2.72;53.34;98412.03;8352700;28;20235;-66
2022/02/13 05:40:10;;;;;;;10.10;7.87;;;;;;;3.05;52.69;98420.34;8352758;28;20228;-67
2022/02/13 05:44:13;;;;;;;11.63;8.20;;;;;;;2.95;52.36;98418.69;8352461;28;20232;-66
2022/02/13 05:48:17;;;;;;;11.07;8.30;;;;;;;2.80;53.12;98417.09;8352481;28;20239;-67
2022/02/13 05:52:20;;;;;;;10.97;8.17;;;;;;;3.19;51.58;98402.31;8352418;28;20236;-67
2022/02/13 05:56:25;;;;;;;13.43;9.13;;;;;;;3.43;51.02;98408.94;8352394;28;20231;-67
2022/02/13 06:00:27;;;;;;;9.70;8.57;;;;;;;2.80;51.90;98400.88;8352609;28;20543;-67
2022/02/13 06:04:30;;;;;;;10.17;8.53;;;;;;;3.24;50.77;98398.00;8351938;28;20262;-67
2022/02/13 06:08:33;;;;;;;9.60;7.47;;;;;;;3.19;51.41;98394.63;8351521;28;20515;-67
2022/02/13 06:12:38;;;;;;;11.53;7.70;;;;;;;3.41;50.74;98400.44;8352136;28;20236;-67
2022/02/13 06:16:41;;;;;;;11.63;8.20;;;;;;;3.22;51.02;98401.44;8351944;28;20236;-67
2022/02/13 06:20:44;;;;;;;13.57;8.80;;;;;;;3.21;50.98;98399.75;8350843;28;20233;-67
2022/02/13 06:24:47;;;;;;;11.10;8.23;;;;;;;3.22;50.77;98401.44;8350376;28;20228;-67
2022/02/13 06:28:52;;;;;;;13.63;8.53;;;;;;;3.26;51.01;98395.44;8350282;28;20266;-67
2022/02/13 06:32:57;;;;;;;12.53;9.30;;;;;;;2.89;51.64;98396.56;8349763;28;20232;-66
2022/02/13 06:37:00;;;;;;;14.30;10.27;;;;;;;2.74;52.09;98400.06;8347890;28;20228;-67
2022/02/13 06:41:03;;;;;;;11.73;9.23;;;;;;;2.73;52.45;98397.53;8350238;28;20224;-67
2022/02/13 06:45:08;;;;;;;11.37;9.03;;;;;;;2.92;51.76;98393.97;8349908;28;20228;-67
2022/02/13 06:49:15;;;;;;;9.80;8.80;;;;;;;2.49;53.44;98393.38;8350190;28;20235;-67
2022/02/13 06:53:18;;;;;;;11.53;8.80;;;;;;;2.43;53.29;98389.16;8349972;28;20228;-66
2022/02/13 06:57:21;;;;;;;12.50;9.03;;;;;;;2.34;54.08;98384.06;8350835;28;20228;-67
2022/02/13 07:01:30;;;;;;;11.50;8.87;;;;;;;2.63;53.20;98391.63;8350476;28;20234;-67
2022/02/13 07:05:32;;;;;;;14.40;10.00;;;;;;;2.58;53.43;98389.94;8349661;28;20239;-67
2022/02/13 07:09:36;;;;;;;9.37;8.23;;;;;;;2.72;53.58;98395.81;8349272;28;20305;-67
2022/02/13 07:13:41;;;;;;;11.40;8.57;;;;;;;2.65;53.55;98397.56;8348942;28;20260;-67
2022/02/13 07:17:46;;;;;;;9.83;8.10;;;;;;;2.83;53.47;98385.50;8349091;28;20440;-67
2022/02/13 07:21:49;;;;;;;9.50;8.03;;;;;;;3.02;53.33;98387.09;8348560;28;20557;-67
2022/02/13 07:25:53;;;;;;;12.43;8.90;;;;;;;3.15;52.45;98384.44;8348586;28;20239;-67
2022/02/13 07:29:56;;;;;;;13.67;10.03;;;;;;;2.07;56.12;98385.03;8346395;28;20440;-67
2022/02/13 07:34:01;;;;;;;15.23;11.40;;;;;;;2.60;54.40;98380.53;8348403;28;20236;-67
2022/02/13 07:38:03;;;;;;;14.27;8.43;;;;;;;2.73;54.48;98377.91;8348427;28;20561;-67
2022/02/13 07:42:07;;;;;;;10.47;8.00;;;;;;;2.82;54.49;98379.56;8348256;28;20535;-67
2022/02/13 07:46:10;;;;;;;9.40;7.90;;;;;;;2.74;54.96;98376.19;8346967;28;20232;-67
2022/02/13 07:50:14;;;;;;;13.43;9.70;;;;;;;2.97;54.99;98377.75;8348139;28;20425;-67
2022/02/13 07:54:18;;;;;;;18.50;10.97;;;;;;;2.94;54.13;98379.47;8347602;28;20235;-67
2022/02/13 07:58:21;;;;;;;13.00;8.37;;;;;;;3.44;53.12;98368.81;8347830;28;20402;-67
2022/02/13 08:02:24;;;;;;;11.73;8.67;;;;;;;4.17;51.51;98368.91;8347242;28;20426;-67
2022/02/13 08:06:28;;;;;;;11.30;8.57;;;;;;;4.50;50.57;98367.63;8346889;28;20240;-67
2022/02/13 08:10:32;;;;;;;10.47;7.87;;;;;;;4.98;49.56;98364.38;8344591;28;20231;-68
2022/02/13 08:14:35;;;;;;;9.77;7.77;;;;;;;5.65;47.95;98363.25;8346595;28;20236;-67
2022/02/13 08:18:39;;;;;;;10.37;7.50;;;;;;;5.99;46.75;98365.19;8346788;28;20224;-67
2022/02/13 08:22:43;;;;;;;10.10;7.53;;;;;;;6.13;45.92;98364.06;8345017;28;20547;-67
2022/02/13 08:26:50;;;;;;;10.47;8.20;;;;;;;6.76;44.58;98365.31;8345993;28;20232;-67
2022/02/13 08:30:53;;;;;;;8.13;6.93;;;;;;;7.46;43.36;98364.50;8344761;28;20235;-67
2022/02/13 08:34:56;;;;;;;10.83;7.73;;;;;;;7.49;43.81;98356.72;8346963;28;20531;-67
2022/02/13 08:39:00;;;;;;;10.00;7.53;;;;;;;7.68;42.69;98357.09;8346973;28;20228;-67
2022/02/13 08:43:03;;;;;;;9.73;8.10;;;;;;;8.32;42.32;98350.13;8346515;28;20225;-68
2022/02/13 08:47:07;;;;;;;8.73;7.17;;;;;;;8.71;40.91;98352.44;8346379;28;20231;-67
2022/02/13 08:51:10;;;;;;;9.50;7.57;;;;;;;9.71;38.85;98340.56;8344460;28;20235;-68
2022/02/13 08:55:15;;;;;;;10.60;7.63;;;;;;;8.91;40.30;98333.75;8348397;28;20235;-67
2022/02/13 08:59:18;;;;;;;9.33;7.17;;;;;;;9.34;39.85;98336.66;8354035;28;20228;-67
2022/02/13 09:03:21;;;;;;;10.73;8.23;;;;;;;9.52;38.87;98333.47;8353716;28;20239;-67
2022/02/13 09:07:24;;;;;;;8.73;7.83;;;;;;;10.17;38.80;98318.25;8354059;28;20231;-67
2022/02/13 09:11:29;;;;;;;9.37;7.67;;;;;;;11.07;37.00;98320.84;8353736;28;20238;-67
2022/02/13 09:15:31;;;;;;;8.83;7.80;;;;;;;10.61;37.96;98320.09;8353171;28;20232;-68
2022/02/13 09:19:34;;;;;;;9.30;7.00;;;;;;;11.67;35.88;98326.09;8353478;28;20232;-68
2022/02/13 09:23:37;;;;;;;9.23;7.37;;;;;;;11.49;35.36;98318.22;8353477;28;20405;-68
2022/02/13 09:27:42;;;;;;;12.03;7.33;;;;;;;11.26;36.41;98319.16;8353040;28;20232;-67
2022/02/13 09:31:45;;;;;;;8.37;7.00;;;;;;;10.84;36.74;98324.38;8352791;28;20531;-68
2022/02/13 09:35:48;;;;;;;12.40;7.00;;;;;;;11.71;35.62;98312.13;8352642;28;20232;-68
2022/02/13 09:39:51;;;;;;;8.73;7.33;;;;;;;12.06;34.20;98307.16;8351172;28;20239;-67
2022/02/13 09:43:56;;;;;;;8.80;7.23;;;;;;;11.53;35.36;98311.13;8352167;28;20514;-67
2022/02/13 09:48:00;;;;;;;8.20;7.23;;;;;;;11.98;34.33;98296.28;8352215;28;20236;-67
2022/02/13 09:52:04;;;;;;;8.80;7.03;;;;;;;12.33;34.87;98297.25;8351874;28;20239;-68
2022/02/13 09:56:08;;;;;;;9.73;7.27;;;;;;;12.20;34.80;98289.16;8350218;28;20236;-67
2022/02/13 10:00:13;;;;;;;8.77;7.50;;;;;;;11.89;35.17;98277.59;8352860;28;20242;-65
2022/02/13 10:04:17;;;;;;;9.83;7.47;;;;;;;11.21;39.22;98276.19;8352023;28;20235;-63
2022/02/13 10:08:32;;;;;;;10.23;7.37;;;;;;;11.26;35.92;98282.03;8348270;28;20599;-63
2022/02/13 10:12:42;;;;;;;9.33;8.03;;;;;;;11.36;35.84;98275.53;8350630;28;20234;-69
2022/02/13 10:16:49;;;;;;;9.60;7.37;;;;;;;12.07;35.48;98264.69;8350118;28;20558;-67
2022/02/13 10:20:56;;;;;;;7.63;6.50;;;;;;;13.29;33.78;98270.13;8350298;28;20535;-67
2022/02/13 10:25:13;;;;;;;10.83;7.60;;;;;;;12.59;35.19;98253.63;8353638;28;20227;-67
2022/02/13 10:29:17;;;;;;;8.80;6.87;;;;;;;12.30;34.75;98256.69;8351497;28;20414;-68
2022/02/13 10:33:23;;;;;;;9.73;7.40;;;;;;;13.10;34.13;98249.41;8349934;28;20228;-67
2022/02/13 10:37:40;;;;;;;8.17;7.20;;;;;;;13.27;33.64;98230.34;8348792;28;20228;-67
2022/02/13 10:41:44;;;;;;;18.50;7.90;;;;;;;13.65;35.31;98228.38;8342286;28;20553;-69
2022/02/13 10:45:47;;;;;;;9.73;7.33;;;;;;;13.02;34.19;98221.19;8348934;28;20424;-67
2022/02/13 10:49:53;;;;;;;9.50;7.27;;;;;;;13.10;34.26;98216.44;8350355;28;20551;-68
2022/02/13 10:53:57;;;;;;;8.00;7.10;;;;;;;12.87;35.13;98212.38;8350615;28;20421;-65
2022/02/13 10:58:01;;;;;;;8.20;7.23;;;;;;;13.60;34.00;98200.94;8350747;28;20417;-65
2022/02/13 11:02:04;;;;;;;13.23;7.93;;;;;;;12.46;35.25;98199.66;8350518;28;20234;-66
2022/02/13 11:06:09;;;;;;;12.53;7.87;;;;;;;12.28;36.20;98191.00;8350512;28;20236;-68
2022/02/13 11:10:16;;;;;;;7.97;6.73;;;;;;;12.46;36.10;98184.06;8350180;28;20231;-68
2022/02/13 11:14:28;;;;;;;11.27;7.07;;;;;;;12.61;36.70;98176.47;8350167;28;20232;-65
2022/02/13 11:18:33;;;;;;;8.80;6.90;;;;;;;13.18;35.87;98158.00;8349684;28;20232;-67
2022/02/13 11:22:38;;;;;;;8.40;6.57;;;;;;;12.66;36.02;98157.13;8349785;28;20216;-66
2022/02/13 11:26:42;;;;;;;9.47;6.70;;;;;;;12.02;37.32;98158.47;8346099;28;20547;-66
2022/02/13 11:30:46;;;;;;;9.30;6.90;;;;;;;13.00;35.94;98141.56;8348917;28;20236;-66
2022/02/13 11:34:49;;;;;;;9.13;6.47;;;;;;;13.28;35.60;98148.78;8348633;28;20244;-66
2022/02/13 11:38:59;;;;;;;11.27;6.43;;;;;;;13.58;35.27;98137.72;8345885;28;20220;-66
2022/02/13 11:43:03;;;;;;;9.23;6.43;;;;;;;13.89;34.89;98129.06;8348371;28;20409;-65
2022/02/13 11:47:07;;;;;;;9.60;6.50;;;;;;;13.87;34.98;98123.94;8348655;28;20242;-65
2022/02/13 11:51:11;;;;;;;7.77;6.13;;;;;;;13.64;34.97;98114.78;8348828;28;20228;-66
2022/02/13 11:55:17;;;;;;;10.87;6.27;;;;;;;14.08;34.86;98102.84;8348856;28;20232;-66
2022/02/13 11:59:48;;;;;;;9.13;5.57;;;;;;;13.51;35.11;98084.34;8348486;28;20228;-66
2022/02/13 12:03:50;;;;;;;9.93;5.83;;;;;;;13.72;35.19;98082.31;8341416;28;20514;-66
2022/02/13 12:07:58;;;;;;;11.93;6.50;;;;;;;13.35;35.89;98090.38;8348598;28;20515;-66
2022/02/13 12:12:03;;;;;;;8.33;6.00;;;;;;;13.94;35.85;98079.38;8348425;28;20238;-66
2022/02/13 12:16:07;;;;;;;12.10;5.90;;;;;;;13.15;36.15;98067.97;8347949;28;20239;-65
2022/02/13 12:20:12;;;;;;;8.27;5.70;;;;;;;13.56;36.16;98054.53;8347000;28;20234;-69
2022/02/13 12:24:26;;;;;;;10.03;5.80;;;;;;;13.84;35.58;98050.38;8347635;28;20247;-69
2022/02/13 12:28:33;;;;;;;12.07;6.20;;;;;;;13.54;35.66;98037.34;8347621;28;20240;-69
2022/02/13 12:32:38;;;;;;;9.30;5.70;;;;;;;13.78;35.58;98035.94;8346821;28;20228;-70
2022/02/13 12:36:41;;;;;;;10.77;5.70;;;;;;;13.62;35.40;98033.38;8348524;28;20227;-71
2022/02/13 12:40:48;;;;;;;8.63;5.50;;;;;;;13.97;35.58;98011.47;8347436;28;20219;-70
2022/02/13 12:44:56;;;;;;;8.27;5.27;;;;;;;14.20;34.78;98003.19;8346863;28;20243;-69
2022/02/13 12:48:59;;;;;;;9.10;5.90;;;;;;;13.94;34.83;97999.50;8346504;28;20247;-70
2022/02/13 12:53:03;;;;;;;13.33;5.93;;;;;;;13.11;36.18;97991.91;8346961;28;20235;-70
2022/02/13 12:57:16;;;;;;;8.07;5.53;;;;;;;13.66;36.24;97987.22;8347399;28;20254;-69
2022/02/13 13:01:32;;;;;;;12.27;6.63;;;;;;;13.12;37.16;97971.94;8347422;28;20239;-71
2022/02/13 13:05:41;;;;;;;10.77;5.27;;;;;;;13.75;35.69;97965.88;8346613;28;20233;-70
2022/02/13 13:09:44;;;;;;;9.27;5.00;;;;;;;14.43;35.11;97956.69;8346899;28;20236;-70
2022/02/13 13:13:47;;;;;;;9.67;5.77;;;;;;;13.72;35.84;97954.78;8346782;28;20231;-69
2022/02/13 13:17:51;;;;;;;7.63;5.97;;;;;;;13.77;36.12;97955.38;8345748;28;20429;-69
2022/02/13 13:21:55;;;;;;;9.03;6.10;;;;;;;13.55;36.16;97942.75;8347058;28;20240;-67
2022/02/13 13:26:01;;;;;;;11.70;7.20;;;;;;;14.02;35.76;97931.34;8346701;28;20232;-68
2022/02/13 13:30:15;;;;;;;12.67;7.53;;;;;;;13.72;36.21;97926.16;8346912;28;20254;-68
2022/02/13 13:34:21;;;;;;;12.60;5.27;;;;;;;14.07;35.93;97924.13;8346912;28;20232;-68
2022/02/13 13:38:30;;;;;;;10.87;5.70;;;;;;;14.20;35.01;97922.47;8346964;28;20251;-68
2022/02/13 13:42:34;;;;;;;13.47;5.57;;;;;;;14.14;35.33;97912.38;8342435;28;20527;-70
2022/02/13 13:46:37;;;;;;;11.47;5.90;;;;;;;13.38;37.02;97902.91;8352565;28;20248;-70
2022/02/13 13:50:44;;;;;;;13.57;5.40;;;;;;;14.35;34.82;97893.78;8352618;28;20232;-70
2022/02/13 13:54:47;;;;;;;12.10;5.60;;;;;;;14.08;35.08;97886.72;8352874;28;20255;-70
2022/02/13 13:58:50;;;;;;;8.37;5.30;;;;;;;13.96;35.07;97887.47;8352663;28;20421;-70
2022/02/13 14:02:57;;;;;;;6.23;4.73;;;;;;;13.97;35.13;97883.91;8352402;28;20231;-70
2022/02/13 14:07:02;;;;;;;8.40;5.33;;;;;;;14.29;34.61;97876.78;8352382;28;20539;-70
2022/02/13 14:11:05;;;;;;;11.47;5.67;;;;;;;13.46;35.92;97864.31;8352221;28;20235;-69
2022/02/13 14:15:10;;;;;;;7.27;4.97;;;;;;;13.77;35.52;97865.13;8351883;28;20239;-68
2022/02/13 14:19:12;;;;;;;9.83;5.43;;;;;;;13.72;35.85;97861.94;8352364;28;20232;-69
2022/02/13 14:23:17;;;;;;;10.87;5.40;;;;;;;14.16;35.72;97853.22;8351756;28;20235;-69
2022/02/13 14:27:24;;;;;;;6.73;4.40;;;;;;;14.35;35.10;97847.72;8352001;28;20244;-68
2022/02/13 14:31:28;;;;;;;9.00;3.90;;;;;;;14.50;34.73;97840.75;8352085;28;20539;-68
2022/02/13 14:35:31;;;;;;;7.73;4.00;;;;;;;14.54;34.72;97842.22;8351302;28;20232;-69
2022/02/13 14:39:35;;;;;;;11.23;4.40;;;;;;;14.71;33.73;97822.13;8351894;28;20236;-68
2022/02/13 14:43:38;;;;;;;8.90;3.87;;;;;;;14.89;33.76;97817.50;8351082;28;20247;-69
2022/02/13 14:47:41;;;;;;;7.97;4.20;;;;;;;14.45;34.23;97825.41;8351052;28;20239;-69
2022/02/13 14:51:44;;;;;;;8.00;4.30;;;;;;;14.35;33.98;97819.06;8350876;28;20240;-68
2022/02/13 14:55:48;;;;;;;9.80;4.20;;;;;;;14.35;34.15;97813.88;8350112;28;20240;-69
2022/02/13 14:59:55;;;;;;;8.47;4.30;;;;;;;14.25;34.03;97815.38;8350710;28;20508;-68
2022/02/13 15:03:58;;;;;;;8.57;3.77;;;;;;;14.20;34.46;97812.22;8350177;28;20244;-68
2022/02/13 15:08:01;;;;;;;9.80;4.30;;;;;;;13.99;34.30;97807.41;8350343;28;20244;-68
2022/02/13 15:12:07;;;;;;;7.80;3.73;;;;;;;14.18;34.58;97807.09;8350367;28;20434;-68
2022/02/13 15:16:10;;;;;;;9.80;4.10;;;;;;;14.23;34.83;97793.81;8350146;28;20232;-68
2022/02/13 15:20:18;;;;;;;10.47;3.97;;;;;;;14.06;34.92;97789.63;8349969;28;20228;-69
2022/02/13 15:24:21;;;;;;;13.07;4.87;;;;;;;13.82;34.78;97789.34;8349955;28;20244;-69
2022/02/13 15:28:26;;;;;;;8.53;3.73;;;;;;;13.51;35.68;97791.19;8349617;28;20243;-69
2022/02/13 15:32:29;;;;;;;8.10;4.17;;;;;;;13.27;35.68;97788.25;8348738;28;20255;-69
2022/02/13 15:36:32;;;;;;;8.70;4.43;;;;;;;13.10;36.43;97782.25;8340198;28;20425;-69
2022/02/13 15:40:34;;;;;;;8.50;5.07;;;;;;;13.01;36.45;97772.38;8348448;28;20243;-69
2022/02/13 15:44:39;;;;;;;7.77;4.23;;;;;;;13.07;36.77;97768.56;8348841;28;20236;-68
2022/02/13 15:48:42;;;;;;;9.13;4.30;;;;;;;12.87;36.98;97754.97;8348628;28;20232;-69
2022/02/13 15:52:45;;;;;;;8.67;4.70;;;;;;;12.91;37.19;97755.63;8348335;28;20228;-69
2022/02/13 15:56:48;;;;;;;12.37;5.57;;;;;;;12.82;36.92;97751.78;8348220;28;20239;-70
2022/02/13 16:00:53;;;;;;;8.27;4.80;;;;;;;12.62;37.38;97752.06;8348491;28;20251;-69
2022/02/13 16:04:55;;;;;;;10.90;4.50;;;;;;;12.61;37.57;97747.81;8347671;28;20234;-69
2022/02/13 16:08:58;;;;;;;7.83;4.50;;;;;;;12.40;37.80;97745.47;8348462;28;20243;-68
2022/02/13 16:13:01;;;;;;;7.23;4.50;;;;;;;12.48;37.71;97734.66;8348267;28;20232;-69
2022/02/13 16:17:07;;;;;;;10.50;5.00;;;;;;;12.44;37.83;97741.78;8348019;28;20235;-69
2022/02/13 16:21:10;;;;;;;12.77;4.70;;;;;;;12.08;38.19;97735.09;8348034;28;20231;-69
2022/02/13 16:25:13;;;;;;;8.77;5.00;;;;;;;11.89;38.50;97736.97;8347901;28;20294;-69
2022/02/13 16:29:16;;;;;;;12.30;5.53;;;;;;;11.95;38.12;97720.25;8346779;28;20629;-69
2022/02/13 16:33:20;;;;;;;11.77;5.07;;;;;;;11.90;38.32;97712.75;8347139;28;20551;-69
2022/02/13 16:37:25;;;;;;;11.70;5.40;;;;;;;11.79;38.64;97722.81;8347749;28;20252;-69
2022/02/13 16:41:28;;;;;;;9.07;5.30;;;;;;;11.67;38.95;97721.69;8346708;28;20231;-68
2022/02/13 16:45:31;;;;;;;10.00;5.13;;;;;;;11.71;38.75;97720.63;8347016;28;20228;-70
2022/02/13 16:49:35;;;;;;;8.03;4.90;;;;;;;11.72;38.65;97722.28;8347381;28;20427;-69
2022/02/13 16:53:40;;;;;;;9.37;5.30;;;;;;;11.60;38.72;97720.34;8347428;28;20232;-69
2022/02/13 16:57:44;;;;;;;10.43;5.53;;;;;;;11.50;38.67;97728.63;8346324;28;20237;-69
2022/02/13 17:01:46;;;;;;;8.27;5.87;;;;;;;11.40;38.85;97729.16;8346385;28;20246;-70
2022/02/13 17:05:51;;;;;;;9.80;6.20;;;;;;;11.27;39.05;97719.44;8346391;28;20291;-69
2022/02/13 17:09:55;;;;;;;8.90;5.70;;;;;;;11.43;38.88;97723.81;8346598;28;20232;-69
2022/02/13 17:13:58;;;;;;;10.83;6.17;;;;;;;10.94;39.08;97716.78;8347225;28;20228;-69
2022/02/13 17:18:01;;;;;;;13.90;6.50;;;;;;;10.89;39.05;97716.16;8351854;28;20232;-68
2022/02/13 17:22:06;;;;;;;13.47;6.20;;;;;;;11.01;39.55;97700.00;8352882;28;20228;-69
2022/02/13 17:26:10;;;;;;;14.63;8.60;;;;;;;10.74;39.91;97702.22;8352564;28;20418;-70
2022/02/13 17:30:13;;;;;;;13.40;7.00;;;;;;;10.72;40.29;97691.09;8352647;28;20234;-69
2022/02/13 17:34:17;;;;;;;13.90;7.40;;;;;;;10.51;40.86;97690.41;8352435;28;20235;-69
2022/02/13 17:38:21;;;;;;;9.50;7.13;;;;;;;10.50;40.86;97688.72;8352473;28;20240;-69
2022/02/13 17:42:26;;;;;;;13.17;6.77;;;;;;;10.25;41.80;97699.38;8352991;28;20240;-69
2022/02/13 17:46:32;;;;;;;10.97;6.80;;;;;;;10.11;42.22;97684.47;8352862;28;20244;-69
2022/02/13 17:50:35;;;;;;;13.50;6.87;;;;;;;10.29;41.70;97681.03;8352374;28;20224;-69
2022/02/13 17:54:40;;;;;;;12.13;7.03;;;;;;;10.24;41.99;97692.50;8351513;28;20299;-70
2022/02/13 17:58:44;;;;;;;13.67;7.37;;;;;;;10.22;42.31;97694.34;8350763;28;20227;-69
2022/02/13 18:02:48;;;;;;;10.73;6.93;;;;;;;10.26;41.95;97686.38;8351637;28;20306;-69
2022/02/13 18:06:52;;;;;;;13.73;6.50;;;;;;;10.13;42.52;97682.69;8351852;28;20252;-70
2022/02/13 18:10:56;;;;;;;10.37;6.87;;;;;;;10.20;41.98;97671.09;8351787;28;20578;-69
2022/02/13 18:14:59;;;;;;;11.07;7.00;;;;;;;10.21;42.31;97667.63;8351149;28;20234;-69
2022/02/13 18:19:08;;;;;;;9.73;6.63;;;;;;;9.77;43.28;97668.78;8351773;28;20236;-68
2022/02/13 18:23:12;;;;;;;15.00;7.20;;;;;;;9.83;43.35;97672.00;8351819;28;20231;-68
2022/02/13 18:27:17;;;;;;;11.33;7.30;;;;;;;9.90;43.41;97660.44;8351816;28;20236;-68
2022/02/13 18:31:20;;;;;;;9.87;7.37;;;;;;;9.72;43.50;97659.56;8351440;28;20231;-68
2022/02/13 18:35:23;;;;;;;11.57;7.07;;;;;;;9.81;43.07;97650.56;8318694;28;20544;-68
2022/02/13 18:39:26;;;;;;;15.03;8.53;;;;;;;9.43;43.94;97653.97;8318490;28;20233;-68
2022/02/13 18:43:30;;;;;;;11.97;8.40;;;;;;;9.74;43.49;97647.41;8318620;28;20231;-69
2022/02/13 18:47:33;;;;;;;12.93;8.40;;;;;;;9.70;43.71;97645.88;8317867;28;20262;-69
2022/02/13 18:51:45;;;;;;;11.73;8.77;;;;;;;9.62;43.65;97635.88;8318197;28;20481;-69
2022/02/13 18:55:48;;;;;;;16.40;9.40;;;;;;;9.56;43.84;97633.59;8318145;28;20536;-69
2022/02/13 18:59:53;;;;;;;12.40;9.00;;;;;;;9.61;43.61;97625.59;8334247;28;20646;-68
2022/02/13 19:03:56;;;;;;;16.23;10.53;;;;;;;8.64;45.81;97619.50;8350607;28;20415;-69
2022/02/13 19:07:59;;;;;;;14.83;10.67;;;;;;;8.73;46.11;97617.38;8349935;28;20239;-69
2022/02/13 19:12:02;;;;;;;16.30;9.40;;;;;;;9.02;45.48;97614.44;8350396;28;20231;-68